Terminal Aerodrome Forecast
Issued by NWS Norman, OK

Home | Current Version | Previous Version | Text Only | Print | Product List | Glossary On
Versions: 1 2 3 4 5 6 7 8 9 10 11 12 13 14 15 16 17 18 19 20 21 22 23 24 25 26
000
FTUS44 KOUN 271737
TAFOKC
TAF
KOKC 271737Z 2718/2818 35012KT P6SM BKN012
     FM271900 01008KT P6SM SCT040
     FM280700 07006KT P6SM BKN020
     FM281000 08010KT P6SM OVC012=

USA.gov is the U.S. government's official web portal to all federal, state and local government web resources and services.